Knossos Palace — SYQO — position and weather

sailwx.info

Track history (hours):
 
Tides and Currents Weather Stations Pressure Air Temp Water Temp Dewpoint Dewpoint Depression Visibility Wind Speed Wind Dir Waves Ship Positions

Knossos Palace

Last reported at 2015-Apr-01 04:33 UTC. Time now 2015-Apr-01 05:49 UTC.
Position N 37°57' E 023°38'.

Length 214 m; beam 26.4 m; draft 7.3 m.

Type: Ship. MMSI: 237641000.

Date/timePositionNaut miles runAvg speedWind from/ knotsBaromVisibWave heightAir tempDewpointWater temp
2015-Apr-01 04:33N 37°57' E 023°38'1 1.1
2015-Apr-01 03:33N 37°56' E 023°37'1918.8
2015-Apr-01 02:33N 37°39' E 023°47'10220.1
2015-Mar-31 21:28N 36°05' E 024°38'1819.4
2015-Mar-31 20:33N 35°50' E 024°49'2019.4
2015-Mar-31 19:30N 35°32' E 025°02'9 0.5
2015-Mar-31 02:33N 35°40' E 024°56'1919.3
2015-Mar-31 01:32N 35°57' E 024°44'11118.6
2015-Mar-30 19:32N 37°37' E 023°44'1818.8
2015-Mar-30 18:34N 37°55' E 023°37'2 2.4
2015-Mar-30 17:33N 37°57' E 023°38'0 0.0
2015-Mar-30 16:32N 37°57' E 023°38'0 0.0
2015-Mar-30 15:32N 37°57' E 023°38'0 0.0
2015-Mar-30 14:32N 37°57' E 023°38'0 0.0
2015-Mar-30 13:32N 37°57' E 023°38'0 0.0
2015-Mar-30 12:32N 37°57' E 023°38'0 0.0
2015-Mar-30 11:32N 37°57' E 023°38'0 0.0
2015-Mar-30 10:32N 37°57' E 023°38'0 0.0
2015-Mar-30 09:32N 37°57' E 023°38'0 0.0
2015-Mar-30 08:32N 37°57' E 023°38'0 0.0
2015-Mar-30 07:32N 37°57' E 023°38'0 0.0
2015-Mar-30 06:32N 37°57' E 023°38'0 0.0
2015-Mar-30 05:32N 37°57' E 023°38'0 0.0
2015-Mar-30 04:32N 37°57' E 023°38'0 0.1
2015-Mar-30 03:33N 37°57' E 023°38'1716.9
2015-Mar-30 02:33N 37°41' E 023°46'10219.8
2015-Mar-29 21:25N 36°08' E 024°37'1619.3
2015-Mar-29 20:33N 35°53' E 024°47'1918.9
2015-Mar-29 19:33N 35°37' E 024°59'4 0.2
2015-Mar-29 03:22N 35°34' E 025°01'1619.7
2015-Mar-29 02:34N 35°47' E 024°51'2019.5
2015-Mar-29 01:33N 36°04' E 024°39'9919.2
2015-Mar-28 20:22N 37°34' E 023°45'1619.5
2015-Mar-28 19:33N 37°48' E 023°38'8 8.2
2015-Mar-28 18:34N 37°57' E 023°38'0 0.0
2015-Mar-28 17:31N 37°57' E 023°38'0 0.0
2015-Mar-28 16:31N 37°57' E 023°38'0 0.0
2015-Mar-28 15:31N 37°57' E 023°38'0 0.0
2015-Mar-28 14:31N 37°57' E 023°38'0 0.0
2015-Mar-28 13:31N 37°57' E 023°38'0 0.0
2015-Mar-28 12:31N 37°57' E 023°38'0 0.0
2015-Mar-28 11:31N 37°57' E 023°38'0 0.0
2015-Mar-28 10:31N 37°57' E 023°38'0 0.0
2015-Mar-28 09:31N 37°57' E 023°38'0 0.0
2015-Mar-28 08:31N 37°57' E 023°38'0 0.0
2015-Mar-28 07:28N 37°57' E 023°38'0 0.0
2015-Mar-28 06:31N 37°57' E 023°38'0 0.0
2015-Mar-28 05:31N 37°57' E 023°38'1 1.1
2015-Mar-28 04:33N 37°56' E 023°37'1919.0
2015-Mar-28 03:33N 37°39' E 023°47'10119.5
2015-Mar-27 22:22N 36°06' E 024°38'1619.0
2015-Mar-27 21:33N 35°53' E 024°47'1919.0
2015-Mar-27 20:33N 35°36' E 024°59'23 1.3
2015-Mar-27 02:30N 35°56' E 024°44'2418.9
2015-Mar-27 01:13N 36°17' E 024°28'8718.6
2015-Mar-26 20:33N 37°36' E 023°44'1818.1
2015-Mar-26 19:33N 37°53' E 023°37'4 3.7
2015-Mar-26 18:33N 37°57' E 023°38'0 0.0
2015-Mar-26 17:33N 37°57' E 023°38'0 0.0
2015-Mar-26 16:30N 37°57' E 023°38'0 0.0
2015-Mar-26 15:33N 37°57' E 023°38'0 0.0
2015-Mar-26 14:33N 37°57' E 023°38'0 0.0
2015-Mar-26 13:33N 37°57' E 023°38'0 0.0
2015-Mar-26 12:33N 37°57' E 023°38'0 0.0
2015-Mar-26 11:33N 37°57' E 023°38'0 0.0
2015-Mar-26 10:33N 37°57' E 023°38'0 0.0
2015-Mar-26 09:33N 37°57' E 023°38'0 0.0
2015-Mar-26 08:30N 37°57' E 023°38'0 0.0
2015-Mar-26 07:33N 37°57' E 023°38'0 0.0
2015-Mar-26 06:24N 37°57' E 023°38'0 0.0
2015-Mar-26 05:30N 37°57' E 023°38'0 0.1
2015-Mar-26 04:33N 37°57' E 023°38'1716.9
2015-Mar-26 03:33N 37°41' E 023°46'9819.6
2015-Mar-25 22:33N 36°11' E 024°34'2119.6
2015-Mar-25 21:29N 35°52' E 024°47'1819.9
2015-Mar-25 20:34N 35°37' E 024°59'18 5.8
2015-Mar-25 17:27N 35°21' E 025°09'19 1.4
2015-Mar-25 03:16N 35°38' E 024°58'1418.8
2015-Mar-25 02:32N 35°50' E 024°49'2418.9
2015-Mar-25 01:16N 36°10' E 024°34'9319.0
2015-Mar-24 20:23N 37°34' E 023°45'1618.7
2015-Mar-24 19:33N 37°49' E 023°37'8 8.0
2015-Mar-24 18:33N 37°57' E 023°38'0 0.0
2015-Mar-24 17:30N 37°57' E 023°38'0 0.0
2015-Mar-24 16:30N 37°57' E 023°38'0 0.0
2015-Mar-24 15:33N 37°57' E 023°38'0 0.0
2015-Mar-24 14:33N 37°57' E 023°38'0 0.0
2015-Mar-24 13:33N 37°57' E 023°38'0 0.0
2015-Mar-24 12:33N 37°57' E 023°38'0 0.0
2015-Mar-24 11:33N 37°57' E 023°38'0 0.0
2015-Mar-24 10:33N 37°57' E 023°38'0 0.0
2015-Mar-24 09:33N 37°57' E 023°38'0 0.0
2015-Mar-24 08:33N 37°57' E 023°38'0 0.0
2015-Mar-24 07:33N 37°57' E 023°38'0 0.0
2015-Mar-24 06:33N 37°57' E 023°38'0 0.0
2015-Mar-24 05:33N 37°57' E 023°38'0 0.1
2015-Mar-24 04:33N 37°57' E 023°38'1717.2
2015-Mar-24 03:33N 37°40' E 023°46'9719.5
2015-Mar-23 22:33N 36°11' E 024°34'2019.9
2015-Mar-23 21:33N 35°54' E 024°46'2020.2
2015-Mar-23 20:33N 35°36' E 024°59'15 0.9
2015-Mar-23 04:19N 35°23' E 025°09'1418.4
2015-Mar-23 03:33N 35°35' E 025°00'1818.4
2015-Mar-23 02:33N 35°51' E 024°48'2318.7
2015-Mar-23 01:19N 36°11' E 024°34'9218.9
2015-Mar-22 20:29N 37°34' E 023°45'1718.9
2015-Mar-22 19:33N 37°50' E 023°37'7 6.7
2015-Mar-22 18:33N 37°57' E 023°38'0 0.0
2015-Mar-22 17:30N 37°57' E 023°38'0 0.0
2015-Mar-22 16:33N 37°57' E 023°38'0 0.0
2015-Mar-22 15:24N 37°57' E 023°38'0 0.0
2015-Mar-22 14:33N 37°57' E 023°38'0 0.0
2015-Mar-22 13:30N 37°57' E 023°38'0 0.0
2015-Mar-22 12:24N 37°57' E 023°38'0 0.0
2015-Mar-22 11:30N 37°57' E 023°38'0 0.0
2015-Mar-22 10:33N 37°57' E 023°38'0 0.0
2015-Mar-22 09:33N 37°57' E 023°38'0 0.0
2015-Mar-22 08:30N 37°57' E 023°38'0 0.0
2015-Mar-22 07:30N 37°57' E 023°38'0 0.0
2015-Mar-22 06:30N 37°57' E 023°38'0 0.0
2015-Mar-22 05:30N 37°57' E 023°38'  
Track history (hours):
 
Tides and Currents Weather Stations Pressure Air Temp Water Temp Dewpoint Dewpoint Depression Visibility Wind Speed Wind Dir Waves Ship Positions

Knossos Palace

Last reported at 2015-Apr-01 04:33 UTC. Time now 2015-Apr-01 05:49 UTC.
Position N 37°57' E 023°38'.

Length 214 m; beam 26.4 m; draft 7.3 m.

Type: Ship. MMSI: 237641000.

Date/timePositionNaut miles runAvg speedWind from/ knotsBaromVisibWave heightAir tempDewpointWater temp
2015-Apr-01 04:33N 37°57' E 023°38'1 1.1
2015-Apr-01 03:33N 37°56' E 023°37'1918.8
2015-Apr-01 02:33N 37°39' E 023°47'10220.1
2015-Mar-31 21:28N 36°05' E 024°38'1819.4
2015-Mar-31 20:33N 35°50' E 024°49'2019.4
2015-Mar-31 19:30N 35°32' E 025°02'9 0.5
2015-Mar-31 02:33N 35°40' E 024°56'1919.3
2015-Mar-31 01:32N 35°57' E 024°44'11118.6
2015-Mar-30 19:32N 37°37' E 023°44'1818.8
2015-Mar-30 18:34N 37°55' E 023°37'2 2.4
2015-Mar-30 17:33N 37°57' E 023°38'0 0.0
2015-Mar-30 16:32N 37°57' E 023°38'0 0.0
2015-Mar-30 15:32N 37°57' E 023°38'0 0.0
2015-Mar-30 14:32N 37°57' E 023°38'0 0.0
2015-Mar-30 13:32N 37°57' E 023°38'0 0.0
2015-Mar-30 12:32N 37°57' E 023°38'0 0.0
2015-Mar-30 11:32N 37°57' E 023°38'0 0.0
2015-Mar-30 10:32N 37°57' E 023°38'0 0.0
2015-Mar-30 09:32N 37°57' E 023°38'0 0.0
2015-Mar-30 08:32N 37°57' E 023°38'0 0.0
2015-Mar-30 07:32N 37°57' E 023°38'0 0.0
2015-Mar-30 06:32N 37°57' E 023°38'0 0.0
2015-Mar-30 05:32N 37°57' E 023°38'0 0.0
2015-Mar-30 04:32N 37°57' E 023°38'0 0.1
2015-Mar-30 03:33N 37°57' E 023°38'1716.9
2015-Mar-30 02:33N 37°41' E 023°46'10219.8
2015-Mar-29 21:25N 36°08' E 024°37'1619.3
2015-Mar-29 20:33N 35°53' E 024°47'1918.9
2015-Mar-29 19:33N 35°37' E 024°59'4 0.2
2015-Mar-29 03:22N 35°34' E 025°01'1619.7
2015-Mar-29 02:34N 35°47' E 024°51'2019.5
2015-Mar-29 01:33N 36°04' E 024°39'9919.2
2015-Mar-28 20:22N 37°34' E 023°45'1619.5
2015-Mar-28 19:33N 37°48' E 023°38'8 8.2
2015-Mar-28 18:34N 37°57' E 023°38'0 0.0
2015-Mar-28 17:31N 37°57' E 023°38'0 0.0
2015-Mar-28 16:31N 37°57' E 023°38'0 0.0
2015-Mar-28 15:31N 37°57' E 023°38'0 0.0
2015-Mar-28 14:31N 37°57' E 023°38'0 0.0
2015-Mar-28 13:31N 37°57' E 023°38'0 0.0
2015-Mar-28 12:31N 37°57' E 023°38'0 0.0
2015-Mar-28 11:31N 37°57' E 023°38'0 0.0
2015-Mar-28 10:31N 37°57' E 023°38'0 0.0
2015-Mar-28 09:31N 37°57' E 023°38'0 0.0
2015-Mar-28 08:31N 37°57' E 023°38'0 0.0
2015-Mar-28 07:28N 37°57' E 023°38'0 0.0
2015-Mar-28 06:31N 37°57' E 023°38'0 0.0
2015-Mar-28 05:31N 37°57' E 023°38'1 1.1
2015-Mar-28 04:33N 37°56' E 023°37'1919.0
2015-Mar-28 03:33N 37°39' E 023°47'10119.5
2015-Mar-27 22:22N 36°06' E 024°38'1619.0
2015-Mar-27 21:33N 35°53' E 024°47'1919.0
2015-Mar-27 20:33N 35°36' E 024°59'23 1.3
2015-Mar-27 02:30N 35°56' E 024°44'2418.9
2015-Mar-27 01:13N 36°17' E 024°28'8718.6
2015-Mar-26 20:33N 37°36' E 023°44'1818.1
2015-Mar-26 19:33N 37°53' E 023°37'4 3.7
2015-Mar-26 18:33N 37°57' E 023°38'0 0.0
2015-Mar-26 17:33N 37°57' E 023°38'0 0.0
2015-Mar-26 16:30N 37°57' E 023°38'0 0.0
2015-Mar-26 15:33N 37°57' E 023°38'0 0.0
2015-Mar-26 14:33N 37°57' E 023°38'0 0.0
2015-Mar-26 13:33N 37°57' E 023°38'0 0.0
2015-Mar-26 12:33N 37°57' E 023°38'0 0.0
2015-Mar-26 11:33N 37°57' E 023°38'0 0.0
2015-Mar-26 10:33N 37°57' E 023°38'0 0.0
2015-Mar-26 09:33N 37°57' E 023°38'0 0.0
2015-Mar-26 08:30N 37°57' E 023°38'0 0.0
2015-Mar-26 07:33N 37°57' E 023°38'0 0.0
2015-Mar-26 06:24N 37°57' E 023°38'0 0.0
2015-Mar-26 05:30N 37°57' E 023°38'0 0.1
2015-Mar-26 04:33N 37°57' E 023°38'1716.9
2015-Mar-26 03:33N 37°41' E 023°46'9819.6
2015-Mar-25 22:33N 36°11' E 024°34'2119.6
2015-Mar-25 21:29N 35°52' E 024°47'1819.9
2015-Mar-25 20:34N 35°37' E 024°59'18 5.8
2015-Mar-25 17:27N 35°21' E 025°09'19 1.4
2015-Mar-25 03:16N 35°38' E 024°58'1418.8
2015-Mar-25 02:32N 35°50' E 024°49'2418.9
2015-Mar-25 01:16N 36°10' E 024°34'9319.0
2015-Mar-24 20:23N 37°34' E 023°45'1618.7
2015-Mar-24 19:33N 37°49' E 023°37'8 8.0
2015-Mar-24 18:33N 37°57' E 023°38'0 0.0
2015-Mar-24 17:30N 37°57' E 023°38'0 0.0
2015-Mar-24 16:30N 37°57' E 023°38'0 0.0
2015-Mar-24 15:33N 37°57' E 023°38'0 0.0
2015-Mar-24 14:33N 37°57' E 023°38'0 0.0
2015-Mar-24 13:33N 37°57' E 023°38'0 0.0
2015-Mar-24 12:33N 37°57' E 023°38'0 0.0
2015-Mar-24 11:33N 37°57' E 023°38'0 0.0
2015-Mar-24 10:33N 37°57' E 023°38'0 0.0
2015-Mar-24 09:33N 37°57' E 023°38'0 0.0
2015-Mar-24 08:33N 37°57' E 023°38'0 0.0
2015-Mar-24 07:33N 37°57' E 023°38'0 0.0
2015-Mar-24 06:33N 37°57' E 023°38'0 0.0
2015-Mar-24 05:33N 37°57' E 023°38'0 0.1
2015-Mar-24 04:33N 37°57' E 023°38'1717.2
2015-Mar-24 03:33N 37°40' E 023°46'9719.5
2015-Mar-23 22:33N 36°11' E 024°34'2019.9
2015-Mar-23 21:33N 35°54' E 024°46'2020.2
2015-Mar-23 20:33N 35°36' E 024°59'15 0.9
2015-Mar-23 04:19N 35°23' E 025°09'1418.4
2015-Mar-23 03:33N 35°35' E 025°00'1818.4
2015-Mar-23 02:33N 35°51' E 024°48'2318.7
2015-Mar-23 01:19N 36°11' E 024°34'9218.9
2015-Mar-22 20:29N 37°34' E 023°45'1718.9
2015-Mar-22 19:33N 37°50' E 023°37'7 6.7
2015-Mar-22 18:33N 37°57' E 023°38'0 0.0
2015-Mar-22 17:30N 37°57' E 023°38'0 0.0
2015-Mar-22 16:33N 37°57' E 023°38'0 0.0
2015-Mar-22 15:24N 37°57' E 023°38'0 0.0
2015-Mar-22 14:33N 37°57' E 023°38'0 0.0
2015-Mar-22 13:30N 37°57' E 023°38'0 0.0
2015-Mar-22 12:24N 37°57' E 023°38'0 0.0
2015-Mar-22 11:30N 37°57' E 023°38'0 0.0
2015-Mar-22 10:33N 37°57' E 023°38'0 0.0
2015-Mar-22 09:33N 37°57' E 023°38'0 0.0
2015-Mar-22 08:30N 37°57' E 023°38'0 0.0
2015-Mar-22 07:30N 37°57' E 023°38'0 0.0
2015-Mar-22 06:30N 37°57' E 023°38'0 0.0
2015-Mar-22 05:30N 37°57' E 023°38'  

Dump ship's entire track history